Time;durP1;ratioP1;P1;durP2;ratioP2;P2;SDS_P1;SDS_P2;PMS_P1;PMS_P2;Temp;Humidity;BMP_temperature;BMP_pressure;BME280_temperature;BME280_humidity;BME280_pressure;Samples;Min_cycle;Max_cycle;Signal;HPM_P1;HPM_P2
2023/03/25 00:00:17;;;;;;;5.28;1.30;;;;;;;8.75;100.00;99984.03;1043627;28;20342;-77
2023/03/25 00:00:52;;;;;;;3.25;1.38;;;;;;;8.76;100.00;99990.97;1029505;28;20305;-76
2023/03/25 00:01:24;;;;;;;6.97;1.88;;;;;;;8.73;100.00;99988.75;1036517;28;20342;-76
2023/03/25 00:01:56;;;;;;;2.75;1.10;;;;;;;8.78;100.00;99988.91;1034485;28;20307;-75
2023/03/25 00:02:28;;;;;;;6.63;1.33;;;;;;;8.80;100.00;99984.19;1037702;28;20374;-75
2023/03/25 00:03:01;;;;;;;2.67;1.27;;;;;;;8.76;100.00;99985.66;1044846;28;20295;-76
2023/03/25 00:03:33;;;;;;;6.93;1.70;;;;;;;8.77;100.00;99987.28;1044285;28;20781;-76
2023/03/25 00:04:04;;;;;;;7.15;2.75;;;;;;;8.71;100.00;99993.47;1048019;28;20301;-76
2023/03/25 00:04:38;;;;;;;5.03;2.20;;;;;;;8.74;100.00;99986.91;1047716;28;20310;-77
2023/03/25 00:05:11;;;;;;;3.08;1.00;;;;;;;8.74;100.00;99982.41;1044134;28;20324;-76
2023/03/25 00:05:43;;;;;;;3.88;2.00;;;;;;;8.68;100.00;99983.31;1042741;28;20657;-76
2023/03/25 00:06:15;;;;;;;4.32;2.33;;;;;;;8.76;100.00;99990.97;1043527;28;20302;-75
2023/03/25 00:06:47;;;;;;;5.95;1.33;;;;;;;8.79;100.00;99982.56;1037269;28;20293;-76
2023/03/25 00:07:20;;;;;;;4.65;1.50;;;;;;;8.79;100.00;99987.06;1040950;28;20695;-76
2023/03/25 00:07:51;;;;;;;4.47;1.80;;;;;;;8.78;100.00;99982.78;1045106;28;20697;-76
2023/03/25 00:08:24;;;;;;;6.47;1.45;;;;;;;8.81;100.00;99966.41;1048046;28;20282;-76
2023/03/25 00:08:56;;;;;;;2.67;1.20;;;;;;;8.78;100.00;99980.94;1043975;28;20310;-76
2023/03/25 00:09:27;;;;;;;2.95;1.80;;;;;;;8.81;100.00;99988.47;1042156;28;20295;-75
2023/03/25 00:09:59;;;;;;;11.88;1.98;;;;;;;8.86;100.00;99996.56;1039898;28;20308;-75
2023/03/25 00:10:31;;;;;;;4.10;1.77;;;;;;;8.83;100.00;99985.59;1043832;28;20808;-75
2023/03/25 00:11:03;;;;;;;5.60;1.58;;;;;;;8.79;100.00;99985.22;1047657;28;20291;-76
2023/03/25 00:11:35;;;;;;;2.30;1.25;;;;;;;8.85;100.00;99989.63;1043654;28;20338;-76
2023/03/25 00:12:06;;;;;;;2.13;0.90;;;;;;;8.82;100.00;99978.66;1037742;28;20293;-76
2023/03/25 00:12:41;;;;;;;6.78;1.50;;;;;;;8.85;100.00;99989.63;1043405;28;20303;-76
2023/03/25 00:13:12;;;;;;;2.30;1.27;;;;;;;8.75;100.00;99989.34;1040638;28;20328;-76
2023/03/25 00:13:44;;;;;;;9.15;1.55;;;;;;;8.82;100.00;99992.75;1047930;28;20298;-77
2023/03/25 00:14:16;;;;;;;5.75;1.33;;;;;;;8.75;100.00;99981.38;1043250;28;20287;-75
2023/03/25 00:14:53;;;;;;;4.28;1.20;;;;;;;8.81;100.00;99988.47;1040455;28;20296;-75
2023/03/25 00:15:25;;;;;;;7.90;1.48;;;;;;;8.83;100.00;99986.38;1046892;28;20318;-76
2023/03/25 00:15:57;;;;;;;5.10;1.42;;;;;;;8.84;100.00;99979.22;1043789;28;20295;-76
2023/03/25 00:16:30;;;;;;;3.15;1.38;;;;;;;8.76;100.00;99980.34;1040892;28;20300;-76
2023/03/25 00:17:02;;;;;;;5.75;1.77;;;;;;;8.81;100.00;99993.78;1043342;28;20306;-76
2023/03/25 00:17:35;;;;;;;4.55;1.25;;;;;;;8.79;100.00;99993.19;1043306;28;20307;-76
2023/03/25 00:18:07;;;;;;;5.32;1.75;;;;;;;8.82;100.00;99984.78;1046093;28;20295;-76
2023/03/25 00:18:39;;;;;;;5.22;1.42;;;;;;;8.89;100.00;99979.38;1043679;28;20329;-76
2023/03/25 00:19:10;;;;;;;6.60;1.50;;;;;;;8.80;100.00;99981.53;1046729;28;20298;-76
2023/03/25 00:19:42;;;;;;;2.05;1.48;;;;;;;8.88;100.00;99983.06;1048100;28;20317;-75
2023/03/25 00:20:13;;;;;;;4.38;1.27;;;;;;;8.85;100.00;99983.50;1046599;28;20780;-76
2023/03/25 00:20:48;;;;;;;7.88;1.38;;;;;;;8.83;100.00;99989.03;1043494;28;20386;-75
2023/03/25 00:21:20;;;;;;;4.90;1.55;;;;;;;8.85;100.00;99984.31;1045864;28;20653;-76
2023/03/25 00:21:53;;;;;;;5.50;1.30;;;;;;;8.81;100.00;99971.72;1039625;28;20300;-76
2023/03/25 00:22:25;;;;;;;3.17;1.40;;;;;;;8.80;100.00;99972.75;1040578;28;20296;-77
2023/03/25 00:22:57;;;;;;;2.85;1.50;;;;;;;8.81;100.00;99985.81;1044189;28;20339;-75
2023/03/25 00:23:30;;;;;;;4.00;1.55;;;;;;;8.77;100.00;99982.00;1043428;28;20299;-76
2023/03/25 00:24:02;;;;;;;9.80;1.70;;;;;;;8.82;100.00;99979.47;1035397;28;20783;-76
2023/03/25 00:24:33;;;;;;;4.53;1.20;;;;;;;8.80;100.00;99981.53;1037425;28;20304;-76
2023/03/25 00:25:23;;;;;;;4.32;1.70;;;;;;;8.82;100.00;99968.84;1036214;28;20301;-75
2023/03/25 00:25:59;;;;;;;4.38;1.35;;;;;;;8.81;100.00;99979.69;1042708;28;20290;-76
2023/03/25 00:26:31;;;;;;;5.65;1.55;;;;;;;8.78;100.00;99980.94;1044998;28;20392;-76
2023/03/25 00:27:02;;;;;;;4.38;1.40;;;;;;;8.80;100.00;99976.22;1047441;28;20294;-75
2023/03/25 00:27:34;;;;;;;5.53;1.60;;;;;;;8.82;100.00;99984.78;1043425;28;20310;-76
2023/03/25 00:28:07;;;;;;;3.67;1.27;;;;;;;8.83;100.00;99978.41;1035162;28;20801;-75
2023/03/25 00:28:39;;;;;;;3.17;1.58;;;;;;;8.75;100.00;99978.72;1032839;28;20795;-75
2023/03/25 00:29:11;;;;;;;7.00;1.60;;;;;;;8.78;100.00;99977.50;1039479;28;20291;-75
2023/03/25 00:29:44;;;;;;;6.55;1.98;;;;;;;8.82;100.00;99981.31;1044373;28;20295;-76
2023/03/25 00:30:17;;;;;;;5.30;1.45;;;;;;;8.79;100.00;99977.25;1039493;28;20329;-76
2023/03/25 00:30:51;;;;;;;3.75;1.25;;;;;;;8.78;100.00;99977.50;1031074;28;20302;-76
2023/03/25 00:31:23;;;;;;;6.20;1.40;;;;;;;8.74;100.00;99977.09;1035012;28;20362;-77
2023/03/25 00:31:54;;;;;;;6.63;2.05;;;;;;;8.75;100.00;99976.06;1036198;28;20300;-76
2023/03/25 00:32:28;;;;;;;3.53;1.42;;;;;;;8.73;100.00;99974.66;1034854;28;20719;-76
2023/03/25 00:33:00;;;;;;;3.63;1.58;;;;;;;8.78;100.00;99978.28;1032455;28;20387;-75
2023/03/25 00:33:34;;;;;;;6.90;1.35;;;;;;;8.80;100.00;99978.88;1029457;28;20403;-76
2023/03/25 00:34:06;;;;;;;4.88;1.75;;;;;;;8.78;100.00;99977.50;1028503;28;20298;-76
2023/03/25 00:34:40;;;;;;;10.07;2.22;;;;;;;8.73;100.00;99972.81;1031227;28;20304;-75
2023/03/25 00:35:16;;;;;;;4.05;1.55;;;;;;;8.77;100.00;99981.19;1036667;28;20304;-75
2023/03/25 00:35:51;;;;;;;6.40;1.63;;;;;;;8.81;100.00;99975.19;1044071;28;20390;-76
2023/03/25 00:36:23;;;;;;;1.50;0.90;;;;;;;8.84;100.00;99977.38;1047709;28;20313;-76
2023/03/25 00:36:55;;;;;;;3.35;1.55;;;;;;;8.74;100.00;99977.09;1050078;28;20290;-75
2023/03/25 00:37:27;;;;;;;5.85;1.35;;;;;;;8.71;100.00;99982.88;1043152;28;20299;-76
2023/03/25 00:38:01;;;;;;;4.47;1.45;;;;;;;8.68;100.00;99975.34;1043369;28;20298;-76
2023/03/25 00:38:34;;;;;;;5.95;1.65;;;;;;;8.72;100.00;99973.88;1043671;28;20283;-76
2023/03/25 00:39:07;;;;;;;9.38;1.85;;;;;;;8.71;100.00;99980.22;1043673;28;20720;-76
2023/03/25 00:39:38;;;;;;;4.47;1.40;;;;;;;8.77;100.00;99979.34;1047111;28;20815;-75
2023/03/25 00:40:10;;;;;;;4.95;1.77;;;;;;;8.74;100.00;99971.78;1040796;28;20726;-75
2023/03/25 00:40:42;;;;;;;4.45;1.55;;;;;;;8.71;100.00;99982.06;1039346;28;20299;-76
2023/03/25 00:41:24;;;;;;;10.57;1.83;;;;;;;8.72;100.00;99979.16;1035210;28;20300;-75
2023/03/25 00:41:56;;;;;;;3.95;1.58;;;;;;;8.73;100.00;99990.59;1037487;28;20303;-76
2023/03/25 00:42:27;;;;;;;5.22;1.80;;;;;;;8.63;100.00;99975.22;1038657;28;20315;-76
2023/03/25 00:43:00;;;;;;;3.60;1.52;;;;;;;8.63;100.00;99972.56;1035272;28;20363;-75
2023/03/25 00:43:32;;;;;;;4.30;1.80;;;;;;;8.70;100.00;99975.13;1040670;28;20292;-76
2023/03/25 00:44:04;;;;;;;4.68;1.10;;;;;;;8.68;100.00;99972.69;1039081;28;20302;-76
2023/03/25 00:44:35;;;;;;;3.92;1.50;;;;;;;8.70;100.00;99978.59;1043536;28;20299;-75
2023/03/25 00:45:07;;;;;;;8.20;1.90;;;;;;;8.76;100.00;99983.00;1039307;28;20386;-76
2023/03/25 00:45:39;;;;;;;5.82;1.58;;;;;;;8.79;100.00;99973.78;1037097;28;20430;-76
2023/03/25 00:46:11;;;;;;;6.53;1.85;;;;;;;8.64;100.00;99982.16;1043270;28;20311;-77
2023/03/25 00:46:42;;;;;;;5.28;1.75;;;;;;;8.65;100.00;99968.66;1039002;28;20312;-76
2023/03/25 00:47:17;;;;;;;6.63;1.40;;;;;;;8.62;100.00;99969.09;1041305;28;20334;-76
2023/03/25 00:47:49;;;;;;;5.78;1.52;;;;;;;8.61;100.00;99979.94;1039326;28;20786;-76
2023/03/25 00:48:21;;;;;;;4.55;1.35;;;;;;;8.64;100.00;99977.66;1040538;28;20299;-76
2023/03/25 00:48:52;;;;;;;6.72;1.70;;;;;;;8.56;100.00;99974.50;1043409;28;20306;-76
2023/03/25 00:49:24;;;;;;;4.93;1.70;;;;;;;8.59;100.00;99984.66;1033224;28;20301;-76
2023/03/25 00:49:56;;;;;;;4.60;1.40;;;;;;;8.59;100.00;99984.66;1038957;28;20314;-76
2023/03/25 00:50:27;;;;;;;4.80;1.65;;;;;;;8.62;100.00;99978.91;1031239;28;20305;-76
2023/03/25 00:51:06;;;;;;;5.10;1.60;;;;;;;8.60;100.00;99973.00;1035798;28;20307;-76
2023/03/25 00:51:37;;;;;;;3.95;1.35;;;;;;;8.57;100.00;99973.47;1036918;28;20292;-76
2023/03/25 00:52:23;;;;;;;2.33;1.40;;;;;;;8.53;100.00;99974.97;1044479;28;20315;-76
2023/03/25 00:52:55;;;;;;;5.13;1.95;;;;;;;8.50;100.00;99983.38;1044889;28;20318;-76
2023/03/25 00:53:26;;;;;;;3.05;1.40;;;;;;;8.51;100.00;99982.34;1044407;28;20788;-76
2023/03/25 00:54:02;;;;;;;5.90;1.88;;;;;;;8.52;100.00;99973.34;1047591;28;20819;-76
2023/03/25 00:54:33;;;;;;;3.17;1.42;;;;;;;8.53;100.00;99980.25;1043534;28;20781;-76
2023/03/25 00:55:06;;;;;;;4.45;1.67;;;;;;;8.50;100.00;99986.03;1045292;28;20315;-76
2023/03/25 00:55:38;;;;;;;6.70;1.75;;;;;;;8.55;100.00;99984.31;1043034;28;20318;-75
2023/03/25 00:56:09;;;;;;;3.60;1.70;;;;;;;8.52;100.00;99978.66;1040682;28;20323;-76
2023/03/25 00:56:41;;;;;;;4.55;2.00;;;;;;;8.53;100.00;99980.25;1040375;28;20311;-75
2023/03/25 00:57:13;;;;;;;4.18;1.20;;;;;;;8.51;100.00;99977.03;1043321;28;20673;-75
2023/03/25 00:57:44;;;;;;;7.35;1.85;;;;;;;8.49;100.00;99985.22;1039015;28;20314;-76
2023/03/25 00:58:16;;;;;;;3.58;1.50;;;;;;;8.53;100.00;99974.97;1031201;28;20297;-76
2023/03/25 00:58:48;;;;;;;5.43;2.20;;;;;;;8.49;100.00;99977.25;1031036;28;20807;-76
2023/03/25 00:59:19;;;;;;;2.80;1.83;;;;;;;8.50;100.00;99986.84;1038370;28;20308;-76
2023/03/25 00:59:51;;;;;;;4.10;1.70;;;;;;;8.49;100.00;99979.06;1046402;28;20377;-75
2023/03/25 01:00:22;;;;;;;3.13;1.20;;;;;;;8.50;100.00;99980.72;1047582;28;20294;-75
2023/03/25 01:00:58;;;;;;;4.78;1.50;;;;;;;8.53;100.00;99973.09;1038499;28;20782;-76
2023/03/25 01:01:29;;;;;;;6.47;1.50;;;;;;;8.52;100.00;99970.69;1040134;28;20749;-75
2023/03/25 01:02:02;;;;;;;4.78;1.35;;;;;;;8.56;100.00;99985.13;1039191;28;20300;-76
2023/03/25 01:02:34;;;;;;;4.03;1.60;;;;;;;8.47;100.00;99971.31;1040266;28;20296;-76
2023/03/25 01:03:08;;;;;;;6.05;1.80;;;;;;;8.45;100.00;99972.59;1037856;28;20316;-75
2023/03/25 01:03:42;;;;;;;3.70;1.48;;;;;;;8.47;100.00;99971.31;1036326;28;20313;-76
2023/03/25 01:04:15;;;;;;;11.75;2.03;;;;;;;8.47;100.00;99970.50;1031224;28;20306;-76
2023/03/25 01:04:48;;;;;;;6.60;2.72;;;;;;;8.56;100.00;99969.19;1035986;28;20296;-76
2023/03/25 01:05:20;;;;;;;5.85;1.50;;;;;;;8.51;100.00;99966.41;1035718;28;20672;-76
2023/03/25 01:05:53;;;;;;;5.57;1.52;;;;;;;8.53;100.00;99975.75;1032257;28;20297;-75
2023/03/25 01:06:28;;;;;;;6.15;1.70;;;;;;;8.53;100.00;99967.81;1031174;28;20301;-75
2023/03/25 01:07:00;;;;;;;3.33;1.30;;;;;;;8.53;100.00;99970.47;1031059;28;20308;-76
2023/03/25 01:07:33;;;;;;;5.88;1.42;;;;;;;8.56;100.00;99963.88;1030901;28;20826;-75
2023/03/25 01:08:05;;;;;;;6.45;1.65;;;;;;;8.58;100.00;99967.13;1041755;28;20288;-75
2023/03/25 01:08:37;;;;;;;4.78;1.55;;;;;;;8.61;100.00;99971.97;1042504;28;20433;-76
2023/03/25 01:09:15;;;;;;;5.53;2.13;;;;;;;8.57;100.00;99973.47;1038896;28;20299;-75
2023/03/25 01:09:47;;;;;;;4.60;1.80;;;;;;;8.63;100.00;99970.72;1038787;28;20390;-76
2023/03/25 01:10:19;;;;;;;5.72;2.03;;;;;;;8.63;100.00;99975.22;1032154;28;20816;-75
2023/03/25 01:10:52;;;;;;;3.25;1.40;;;;;;;8.61;100.00;99974.63;1035019;28;20333;-75
2023/03/25 01:11:26;;;;;;;8.32;1.98;;;;;;;8.60;100.00;99970.38;1028396;28;20302;-75
2023/03/25 01:11:58;;;;;;;5.03;2.03;;;;;;;8.53;100.00;99965.16;1037150;28;20305;-76
2023/03/25 01:12:30;;;;;;;8.73;1.92;;;;;;;8.56;100.00;99975.31;1043227;28;20897;-76
2023/03/25 01:13:02;;;;;;;5.57;2.35;;;;;;;8.53;100.00;99973.09;1040161;28;20284;-76
2023/03/25 01:13:34;;;;;;;6.82;1.67;;;;;;;8.59;100.00;99969.56;1042187;28;20805;-76
2023/03/25 01:14:10;;;;;;;4.07;1.83;;;;;;;8.55;100.00;99973.69;1038162;28;20357;-76
2023/03/25 01:14:42;;;;;;;6.93;1.98;;;;;;;8.58;100.00;99977.75;1035452;28;20292;-76
2023/03/25 01:15:14;;;;;;;8.75;1.60;;;;;;;8.53;100.00;99972.31;1037467;28;20307;-76
2023/03/25 01:15:46;;;;;;;5.97;2.00;;;;;;;8.50;100.00;99975.41;1036287;28;20307;-76
2023/03/25 01:16:19;;;;;;;5.13;1.50;;;;;;;8.49;100.00;99968.44;1036551;28;20296;-76
2023/03/25 01:16:50;;;;;;;6.38;2.25;;;;;;;8.56;100.00;99977.97;1043272;28;20373;-75
2023/03/25 01:17:22;;;;;;;5.70;1.90;;;;;;;8.58;100.00;99973.25;1042186;28;20796;-77
2023/03/25 01:17:54;;;;;;;3.53;2.03;;;;;;;8.60;100.00;99975.66;1040594;28;20381;-76
2023/03/25 01:18:26;;;;;;;9.40;1.85;;;;;;;8.58;100.00;99969.78;1047123;28;20950;-76
2023/03/25 01:18:57;;;;;;;7.35;1.40;;;;;;;8.59;100.00;99974.88;1045440;28;20689;-76
2023/03/25 01:19:29;;;;;;;6.13;1.63;;;;;;;8.61;100.00;99964.81;1046323;28;20474;-76
2023/03/25 01:20:01;;;;;;;5.28;1.83;;;;;;;8.64;100.00;99966.22;1046195;28;20664;-75
2023/03/25 01:20:32;;;;;;;3.97;1.95;;;;;;;8.64;100.00;99966.22;1043756;28;20793;-76
2023/03/25 01:21:05;;;;;;;8.02;2.17;;;;;;;8.61;100.00;99969.31;1044430;28;20314;-76
2023/03/25 01:21:36;;;;;;;3.72;1.73;;;;;;;8.56;100.00;99971.84;1043414;28;20307;-76
2023/03/25 01:22:08;;;;;;;4.15;1.83;;;;;;;8.63;100.00;99968.06;1043759;28;20409;-76
2023/03/25 01:22:39;;;;;;;3.38;1.80;;;;;;;8.63;100.00;99964.59;1043753;28;20333;-76
2023/03/25 01:23:11;;;;;;;6.88;2.05;;;;;;;8.62;100.00;99962.97;1043166;28;20804;-76
2023/03/25 01:23:43;;;;;;;9.90;2.42;;;;;;;8.55;100.00;99970.22;1043274;28;20611;-76
2023/03/25 01:24:15;;;;;;;7.78;2.28;;;;;;;8.57;100.00;99970.81;1047682;28;20303;-76
2023/03/25 01:24:47;;;;;;;7.28;1.42;;;;;;;8.57;100.00;99965.50;1047327;28;20835;-76
2023/03/25 01:25:18;;;;;;;8.30;2.30;;;;;;;8.63;100.00;99960.09;1044788;28;20821;-76
2023/03/25 01:25:50;;;;;;;4.55;1.67;;;;;;;8.62;100.00;99968.28;1043781;28;20298;-76
2023/03/25 01:26:22;;;;;;;6.13;1.92;;;;;;;8.58;100.00;99964.47;1043017;28;20329;-76
2023/03/25 01:26:53;;;;;;;7.97;2.15;;;;;;;8.60;100.00;99963.22;1043813;28;20310;-76
2023/03/25 01:27:25;;;;;;;4.47;1.85;;;;;;;8.55;100.00;99960.41;1045146;28;20702;-75
2023/03/25 01:27:57;;;;;;;4.88;1.60;;;;;;;8.49;100.00;99961.31;1043190;28;20627;-76
2023/03/25 01:28:29;;;;;;;6.43;1.98;;;;;;;8.55;100.00;99972.88;1046426;28;20298;-76
2023/03/25 01:29:02;;;;;;;4.22;2.33;;;;;;;8.56;100.00;99958.56;1047612;28;20313;-76
2023/03/25 01:29:34;;;;;;;5.13;2.80;;;;;;;8.55;100.00;99956.97;1047509;28;20333;-77
2023/03/25 01:30:06;;;;;;;11.02;1.85;;;;;;;8.64;100.00;99961.72;1043762;28;20300;-76
2023/03/25 01:30:38;;;;;;;4.93;2.03;;;;;;;8.62;100.00;99955.03;1039553;28;20315;-76
2023/03/25 01:31:13;;;;;;;8.82;2.28;;;;;;;8.61;100.00;99956.88;1043447;28;20283;-76
2023/03/25 01:31:44;;;;;;;6.38;2.80;;;;;;;8.60;100.00;99960.56;1043445;28;20303;-75
2023/03/25 01:32:16;;;;;;;5.35;1.90;;;;;;;8.61;100.00;99956.06;1040014;28;20308;-75
2023/03/25 01:32:48;;;;;;;4.13;2.10;;;;;;;8.63;100.00;99969.91;1043241;28;20851;-75
2023/03/25 01:33:20;;;;;;;8.05;2.35;;;;;;;8.68;100.00;99952.25;1043549;28;20736;-76
2023/03/25 01:33:51;;;;;;;6.53;1.83;;;;;;;8.63;100.00;99964.59;1047465;28;20290;-75
2023/03/25 01:34:23;;;;;;;5.75;2.85;;;;;;;8.65;100.00;99951.91;1047395;28;20303;-75
2023/03/25 01:34:56;;;;;;;11.95;2.47;;;;;;;8.65;100.00;99967.84;1045265;28;20393;-75
2023/03/25 01:35:27;;;;;;;8.23;2.78;;;;;;;8.65;100.00;99951.91;1042938;28;20302;-75
2023/03/25 01:35:59;;;;;;;5.78;1.70;;;;;;;8.64;100.00;99953.75;1039109;28;20299;-75
2023/03/25 01:36:31;;;;;;;4.85;2.22;;;;;;;8.62;100.00;99953.16;1033129;28;20305;-76
2023/03/25 01:37:03;;;;;;;8.13;2.88;;;;;;;8.61;100.00;99953.41;1035419;28;20315;-75
2023/03/25 01:37:35;;;;;;;9.07;2.42;;;;;;;8.58;100.00;99957.31;1034432;28;20305;-75
2023/03/25 01:38:07;;;;;;;7.82;2.30;;;;;;;8.62;100.00;99963.78;1033808;28;20296;-76
2023/03/25 01:38:40;;;;;;;5.93;2.63;;;;;;;8.65;100.00;99959.88;1039427;28;20291;-76
2023/03/25 01:39:17;;;;;;;8.25;2.30;;;;;;;8.65;100.00;99958.03;1032411;28;20676;-76
2023/03/25 01:39:49;;;;;;;6.10;2.35;;;;;;;8.64;100.00;99955.59;1036821;28;20296;-76
2023/03/25 01:40:22;;;;;;;9.55;3.05;;;;;;;8.65;100.00;99951.91;1037446;28;20307;-75
2023/03/25 01:40:54;;;;;;;6.90;2.03;;;;;;;8.56;100.00;99950.63;1041746;28;20308;-76
2023/03/25 01:41:27;;;;;;;8.13;2.78;;;;;;;8.52;100.00;99946.78;1044677;28;20307;-76
2023/03/25 01:42:13;;;;;;;13.35;3.58;;;;;;;8.53;100.00;99959.03;1042017;28;20333;-76
2023/03/25 01:42:45;;;;;;;6.10;1.70;;;;;;;8.59;100.00;99955.47;1043541;28;20829;-76
2023/03/25 01:43:18;;;;;;;5.22;2.17;;;;;;;8.59;100.00;99955.47;1042990;28;20302;-75
2023/03/25 01:44:06;;;;;;;3.90;2.22;;;;;;;8.65;100.00;99947.41;1039074;28;20391;-75
2023/03/25 01:44:38;;;;;;;7.10;1.88;;;;;;;8.64;100.00;99960.91;1039431;28;20800;-76
2023/03/25 01:45:27;;;;;;;8.05;1.80;;;;;;;8.66;100.00;99950.88;1040040;28;20701;-76
2023/03/25 01:45:59;;;;;;;4.85;1.60;;;;;;;8.64;100.00;99950.28;1047618;28;20283;-75
2023/03/25 01:46:31;;;;;;;9.73;2.65;;;;;;;8.65;100.00;99952.72;1043499;28;20302;-76
2023/03/25 01:47:05;;;;;;;8.50;2.50;;;;;;;8.62;100.00;99947.06;1042839;28;20364;-76
2023/03/25 01:47:37;;;;;;;10.35;2.10;;;;;;;8.65;100.00;99946.59;1035564;28;20335;-76
2023/03/25 01:48:14;;;;;;;8.13;2.17;;;;;;;8.71;100.00;99950.19;1037133;28;20303;-76
2023/03/25 01:48:48;;;;;;;10.85;2.92;;;;;;;8.66;100.00;99949.03;1037201;28;20678;-76
2023/03/25 01:49:25;;;;;;;6.93;1.98;;;;;;;8.65;100.00;99946.59;1041873;28;20299;-75
2023/03/25 01:49:57;;;;;;;7.00;1.98;;;;;;;8.64;100.00;99950.28;1044017;28;20295;-76
2023/03/25 01:50:31;;;;;;;4.00;2.22;;;;;;;8.56;100.00;99948.78;1044175;28;20299;-76
2023/03/25 01:51:07;;;;;;;9.88;2.88;;;;;;;8.58;100.00;99943.22;1047028;28;20303;-75
2023/03/25 01:51:43;;;;;;;10.80;2.40;;;;;;;8.54;100.00;99942.06;1048513;28;20302;-76
2023/03/25 01:52:24;;;;;;;8.07;2.15;;;;;;;8.61;100.00;99951.56;1048192;28;20294;-75
2023/03/25 01:52:56;;;;;;;12.80;2.53;;;;;;;8.64;100.00;99939.69;1043546;28;20295;-77
2023/03/25 01:53:29;;;;;;;6.85;2.08;;;;;;;8.57;100.00;99944.28;1041832;28;20049;-76
2023/03/25 01:54:01;;;;;;;7.93;2.38;;;;;;;8.58;100.00;99948.53;1033328;28;20417;-76
2023/03/25 01:54:33;;;;;;;7.03;1.75;;;;;;;8.55;100.00;99941.03;1033481;28;20305;-76
2023/03/25 01:55:06;;;;;;;5.57;1.85;;;;;;;8.65;100.00;99946.59;1035418;28;21581;-75
2023/03/25 01:55:39;;;;;;;7.63;2.75;;;;;;;8.60;100.00;99939.31;1028765;28;20812;-76
2023/03/25 01:56:15;;;;;;;9.23;2.38;;;;;;;8.55;100.00;99943.69;1032633;28;20305;-76
2023/03/25 01:56:48;;;;;;;11.40;3.78;;;;;;;8.59;100.00;99950.16;1031485;28;20305;-76
2023/03/25 01:57:21;;;;;;;7.82;2.70;;;;;;;8.57;100.00;99947.72;1033193;28;20647;-75
2023/03/25 01:57:55;;;;;;;8.63;2.45;;;;;;;8.55;100.00;99941.03;1033727;28;20348;-75
2023/03/25 01:58:29;;;;;;;11.05;2.10;;;;;;;8.58;100.00;99946.69;1034052;28;20659;-76
2023/03/25 01:59:04;;;;;;;10.30;3.45;;;;;;;8.64;100.00;99942.31;1037638;28;20300;-76
2023/03/25 01:59:36;;;;;;;10.60;1.88;;;;;;;8.64;100.00;99944.97;1035470;28;20339;-76
2023/03/25 02:00:09;;;;;;;7.00;2.08;;;;;;;8.66;100.00;99938.41;1036801;28;20316;-76
2023/03/25 02:00:44;;;;;;;6.43;1.98;;;;;;;8.71;100.00;99945.69;1036097;28;20815;-75
2023/03/25 02:01:20;;;;;;;5.50;1.95;;;;;;;8.65;100.00;99935.97;1038177;28;20289;-76
2023/03/25 02:01:53;;;;;;;6.95;1.95;;;;;;;8.63;100.00;99938.06;1039851;28;20311;-76
2023/03/25 02:02:33;;;;;;;9.05;2.22;;;;;;;8.63;100.00;99938.06;1041367;28;20374;-76
2023/03/25 02:03:08;;;;;;;6.93;2.00;;;;;;;8.64;100.00;99947.63;1046332;28;20677;-76
2023/03/25 02:03:44;;;;;;;5.43;1.92;;;;;;;8.67;100.00;99944.53;1041856;28;20069;-76
2023/03/25 02:04:26;;;;;;;6.28;1.85;;;;;;;8.76;100.00;99935.19;1044084;28;20294;-76
2023/03/25 02:05:06;;;;;;;12.35;2.28;;;;;;;8.59;100.00;99942.19;1035743;28;20313;-76
2023/03/25 02:05:41;;;;;;;7.45;1.90;;;;;;;8.63;100.00;99940.72;1035668;28;20101;-76
2023/03/25 02:06:33;;;;;;;6.38;2.00;;;;;;;8.65;100.00;99942.09;1032949;28;20054;-76
2023/03/25 02:07:09;;;;;;;5.38;2.67;;;;;;;8.65;100.00;99941.28;1043792;28;20661;-76
2023/03/25 02:07:41;;;;;;;2.88;1.45;;;;;;;8.66;100.00;99934.94;1044012;28;20306;-76
2023/03/25 02:08:14;;;;;;;7.30;2.65;;;;;;;8.67;100.00;99939.22;1043600;28;20311;-75
2023/03/25 02:08:46;;;;;;;5.88;1.40;;;;;;;8.65;100.00;99946.59;1036048;28;20297;-76
2023/03/25 02:09:20;;;;;;;8.65;2.75;;;;;;;8.66;100.00;99942.91;1030603;28;20359;-76
2023/03/25 02:09:51;;;;;;;10.27;1.83;;;;;;;8.68;100.00;99936.34;1027316;28;20313;-76
2023/03/25 02:10:23;;;;;;;7.60;1.85;;;;;;;8.65;100.00;99946.59;1028423;28;20305;-76
2023/03/25 02:10:55;;;;;;;7.07;2.20;;;;;;;8.68;100.00;99935.53;1032062;28;20301;-76
2023/03/25 02:11:28;;;;;;;9.35;2.20;;;;;;;8.68;100.00;99943.50;1035624;28;20548;-76
2023/03/25 02:12:00;;;;;;;6.57;1.95;;;;;;;8.71;100.00;99935.06;1038629;28;20308;-76
2023/03/25 02:12:32;;;;;;;7.85;2.60;;;;;;;8.68;100.00;99941.66;1033291;28;20312;-76
2023/03/25 02:13:05;;;;;;;7.47;1.85;;;;;;;8.62;100.00;99944.41;1032136;28;20663;-76
2023/03/25 02:13:38;;;;;;;5.75;2.33;;;;;;;8.62;100.00;99944.41;1031172;28;20316;-76
2023/03/25 02:14:21;;;;;;;8.07;1.63;;;;;;;8.64;100.00;99940.47;1033508;28;20310;-76
2023/03/25 02:14:54;;;;;;;6.03;2.15;;;;;;;8.60;100.00;99943.81;1027636;28;20800;-76
2023/03/25 02:15:28;;;;;;;3.95;2.20;;;;;;;8.53;100.00;99937.78;1031427;28;20648;-76
2023/03/25 02:16:21;;;;;;;4.07;2.38;;;;;;;8.58;100.00;99945.88;1034390;28;20293;-76
2023/03/25 02:17:24;;;;;;;8.98;1.48;;;;;;;8.63;100.00;99943.38;1047162;28;20305;-76
2023/03/25 02:18:07;;;;;;;3.85;1.45;;;;;;;8.58;100.00;99940.59;1048349;28;20287;-76
2023/03/25 02:18:57;;;;;;;5.45;2.33;;;;;;;8.64;100.00;99950.28;1039351;28;21278;-76
2023/03/25 02:19:50;;;;;;;6.78;3.00;;;;;;;8.61;100.00;99946.25;1044426;28;20386;-76
2023/03/25 02:20:40;;;;;;;10.45;1.63;;;;;;;8.61;100.00;99942.78;1044159;28;20311;-76
2023/03/25 02:21:33;;;;;;;12.05;1.58;;;;;;;8.64;100.00;99944.97;1043404;28;20442;-76
2023/03/25 02:22:36;;;;;;;4.50;1.50;;;;;;;8.58;100.00;99940.59;1044321;28;20307;-76
2023/03/25 02:23:27;;;;;;;3.20;1.60;;;;;;;8.62;100.00;99942.56;1043166;28;20422;-75
2023/03/25 02:24:13;;;;;;;8.85;2.13;;;;;;;8.64;100.00;99940.47;1045226;28;20331;-76
2023/03/25 02:25:04;;;;;;;11.43;4.70;;;;;;;8.53;100.00;99948.41;1047887;28;20075;-76
2023/03/25 02:25:57;;;;;;;6.50;2.08;;;;;;;8.56;100.00;99951.41;1045280;28;20342;-76
2023/03/25 02:27:03;;;;;;;17.55;3.38;;;;;;;8.53;100.00;99943.91;1044137;28;20041;-76
2023/03/25 02:28:24;;;;;;;8.35;1.65;;;;;;;8.55;100.00;99941.03;1043260;28;20348;-76
2023/03/25 02:29:35;;;;;;;10.15;2.53;;;;;;;8.44;100.00;99949.75;1031629;28;20321;-76
2023/03/25 02:30:32;;;;;;;9.80;1.27;;;;;;;8.43;100.00;99948.13;1019463;29;20920;-76
2023/03/25 02:31:11;;;;;;;5.43;1.25;;;;;;;8.38;100.00;99945.34;1038031;28;20647;-76
2023/03/25 02:31:42;;;;;;;7.43;1.80;;;;;;;8.44;100.00;99944.44;1031783;28;20424;-76
2023/03/25 02:32:32;;;;;;;4.43;1.48;;;;;;;8.50;100.00;99947.03;1031148;28;20854;-76
2023/03/25 02:33:28;;;;;;;14.30;2.75;;;;;;;8.42;100.00;99951.81;1031263;28;20309;-75
2023/03/25 02:34:16;;;;;;;9.30;1.90;;;;;;;8.44;100.00;99950.53;1028013;28;20306;-75
2023/03/25 02:35:03;;;;;;;9.77;2.33;;;;;;;8.46;100.00;99948.47;1034316;28;20687;-76
2023/03/25 02:35:56;;;;;;;5.07;2.85;;;;;;;8.49;100.00;99947.22;1038687;28;20663;-76
2023/03/25 02:36:42;;;;;;;6.95;1.73;;;;;;;8.43;100.00;99948.94;1039748;28;20359;-76
2023/03/25 02:37:17;;;;;;;10.10;1.38;;;;;;;8.34;100.00;99943.13;1037000;28;20304;-76
2023/03/25 02:38:13;;;;;;;5.60;1.70;;;;;;;8.38;100.00;99950.63;1035436;28;20309;-76
2023/03/25 02:39:09;;;;;;;11.52;2.03;;;;;;;8.33;100.00;99944.16;1035596;28;20305;-76
2023/03/25 02:39:46;;;;;;;5.55;1.33;;;;;;;8.31;100.00;99950.69;1031445;28;20301;-77
2023/03/25 02:40:25;;;;;;;8.32;2.15;;;;;;;8.32;100.00;99945.16;1027479;28;20302;-75
2023/03/25 02:41:04;;;;;;;6.53;3.08;;;;;;;8.34;100.00;99951.09;1034114;28;20316;-76
2023/03/25 02:41:50;;;;;;;3.00;1.40;;;;;;;8.30;100.00;99949.06;1038802;28;20658;-76
2023/03/25 02:42:25;;;;;;;10.85;2.08;;;;;;;8.33;100.00;99946.81;1035696;28;20303;-76
2023/03/25 02:43:21;;;;;;;12.30;2.20;;;;;;;8.43;100.00;99945.47;1028994;28;20314;-76
2023/03/25 02:44:00;;;;;;;13.73;2.53;;;;;;;8.40;100.00;99943.25;1036642;28;20304;-76
2023/03/25 02:44:41;;;;;;;7.63;1.35;;;;;;;8.41;100.00;99951.00;1036197;28;20359;-76
2023/03/25 02:45:28;;;;;;;8.98;1.70;;;;;;;8.42;100.00;99941.19;1039709;28;20446;-76
2023/03/25 02:46:06;;;;;;;6.93;1.48;;;;;;;8.31;100.00;99946.19;1039608;28;20307;-75